Luck, Wisconsin
Current Conditions -  °F | °C
As of 8:55 PM on Saturday 25 Oct 2014 (Local Time) from KRZN Reporting Station
Clear Clear  
Wind Chill: 46°   Ceiling: Unl
Heat Index: 46°   Visibility: 10mi
Dew Point: 25°   Wind: 3mph
Humidity: 44%   Direction: 300°WNW
Pressure: 30.02"   Gusts: NA
Location:  45.58°N, 92.48°W
Report Text: KRZN 260155Z AUTO 30003KT 10SM CLR 08/M04 A3002 RMK AO2 T00761040
Loading
Personal Weather Stations






























Interactive Weather Map New forecast layout! Learn more

10-Day Weather Forecast

Advertisements
Track Severe Weather on mobile